Time;durP1;ratioP1;P1;durP2;ratioP2;P2;SDS_P1;SDS_P2;PMS_P1;PMS_P2;Temp;Humidity;BMP_temperature;BMP_pressure;BME280_temperature;BME280_humidity;BME280_pressure;Samples;Min_cycle;Max_cycle;Signal;HPM_P1;HPM_P2
2022/12/14 00:00:38;;;;;;;2.50;2.30;;;15.10;51.80;16.00;99653.00;;;;5068719;28;20215;-40
2022/12/14 00:03:03;;;;;;;2.80;2.50;;;15.10;52.00;16.00;99645.00;;;;5067202;28;20201;-41
2022/12/14 00:05:29;;;;;;;2.50;2.30;;;15.10;52.00;16.00;99647.00;;;;5068783;28;20247;-41
2022/12/14 00:07:55;;;;;;;2.70;2.50;;;15.10;52.00;15.90;99644.00;;;;5067252;28;20530;-41
2022/12/14 00:10:20;;;;;;;3.17;2.70;;;15.00;51.90;15.90;99638.00;;;;5068217;28;20201;-41
2022/12/14 00:12:46;;;;;;;2.60;2.40;;;15.00;51.90;15.90;99635.00;;;;5068344;28;20177;-40
2022/12/14 00:15:12;;;;;;;2.83;2.60;;;15.00;51.90;15.80;99630.00;;;;5068370;28;20169;-41
2022/12/14 00:17:38;;;;;;;2.70;2.50;;;15.00;51.90;15.80;99544.00;;;;5068034;28;20658;-41
2022/12/14 00:20:04;;;;;;;2.40;2.20;;;14.90;51.80;15.80;99627.00;;;;5068021;28;20627;-40
2022/12/14 00:22:30;;;;;;;2.60;2.40;;;14.90;52.00;15.80;99622.00;;;;5067925;28;20178;-42
2022/12/14 00:24:56;;;;;;;2.70;2.50;;;14.80;51.80;15.70;99632.00;;;;5069056;28;20189;-42
2022/12/14 00:27:21;;;;;;;2.50;2.30;;;14.80;51.80;15.70;99622.00;;;;5070982;28;20798;-42
2022/12/14 00:29:47;;;;;;;2.60;2.40;;;14.80;51.90;15.70;99616.00;;;;5068353;28;20190;-42
2022/12/14 00:32:13;;;;;;;2.53;2.33;;;14.80;52.00;15.70;99612.00;;;;5068677;28;20170;-42
2022/12/14 00:34:39;;;;;;;2.63;2.43;;;14.70;52.00;15.60;99609.00;;;;5072380;28;20173;-42
2022/12/14 00:37:04;;;;;;;2.60;2.40;;;14.70;52.00;15.60;99622.00;;;;5073250;28;20584;-42
2022/12/14 00:39:30;;;;;;;2.60;2.40;;;14.70;52.00;15.60;99619.00;;;;5073290;28;20265;-40
2022/12/14 00:41:56;;;;;;;2.60;2.40;;;14.70;52.00;15.50;99631.00;;;;5067959;28;20166;-41
2022/12/14 00:44:22;;;;;;;2.60;2.40;;;14.70;52.00;15.50;99624.00;;;;5068232;28;20200;-41
2022/12/14 00:46:47;;;;;;;2.60;2.40;;;14.60;52.00;15.50;99620.00;;;;5067868;28;20169;-41
2022/12/14 00:49:13;;;;;;;2.83;2.33;;;14.60;52.10;15.50;99533.00;;;;5068009;28;20190;-40
2022/12/14 00:51:39;;;;;;;2.40;2.20;;;14.60;51.90;15.40;99612.00;;;;5067939;28;20166;-40
2022/12/14 00:54:05;;;;;;;2.67;2.47;;;14.60;52.00;15.40;99609.00;;;;5070301;28;20192;-41
2022/12/14 00:56:30;;;;;;;3.67;2.63;;;14.50;51.90;15.40;99613.00;;;;5074966;28;20177;-41
2022/12/14 00:58:56;;;;;;;2.50;2.30;;;14.50;52.00;15.40;99595.00;;;;5069424;28;20678;-40
2022/12/14 01:01:22;;;;;;;2.60;2.40;;;14.50;52.10;15.30;99602.00;;;;5069728;28;20236;-40
2022/12/14 01:03:48;;;;;;;3.10;2.80;;;14.50;52.00;15.30;99594.00;;;;5072135;28;20162;-41
2022/12/14 01:06:21;;;;;;;2.40;2.20;;;14.50;52.10;15.30;99585.00;;;;5071729;28;20194;-41
2022/12/14 01:08:47;;;;;;;2.70;2.50;;;14.50;52.10;15.30;99581.00;;;;5071587;28;20193;-39
2022/12/14 01:11:13;;;;;;;2.43;2.23;;;14.40;52.00;15.20;99583.00;;;;5069901;28;20166;-42
2022/12/14 01:13:38;;;;;;;2.60;2.40;;;14.40;52.10;15.20;99575.00;;;;5070433;28;20173;-41
2022/12/14 01:16:06;;;;;;;2.97;2.60;;;14.40;52.10;15.20;99556.00;;;;5071241;28;20798;-42
2022/12/14 01:18:34;;;;;;;2.40;2.20;;;14.40;52.10;15.20;99555.00;;;;5070989;28;20201;-41
2022/12/14 01:21:21;;;;;;;2.60;2.40;;;14.30;52.10;15.20;99564.00;;;;5071325;28;20762;-42
2022/12/14 01:23:49;;;;;;;2.60;2.40;;;14.30;52.00;15.20;99563.00;;;;5071653;28;20188;-41
2022/12/14 01:26:15;;;;;;;2.60;2.40;;;14.20;52.10;15.20;99553.00;;;;5071269;28;20567;-41
2022/12/14 01:28:41;;;;;;;2.50;2.27;;;14.20;52.00;15.20;99539.00;;;;5071389;28;20666;-43
2022/12/14 01:31:18;;;;;;;2.33;2.13;;;14.20;52.00;15.20;99560.00;;;;5070110;28;20235;-41
2022/12/14 01:33:44;;;;;;;2.50;2.30;;;14.20;52.00;15.20;99553.00;;;;5071755;28;20157;-42
2022/12/14 01:36:32;;;;;;;2.50;2.30;;;14.20;52.00;15.20;99534.00;;;;5072327;28;20667;-42
2022/12/14 01:39:00;;;;;;;2.70;2.50;;;14.20;52.00;15.20;99540.00;;;;5071398;28;20209;-42
2022/12/14 01:41:31;;;;;;;2.60;2.40;;;14.20;52.00;15.10;99532.00;;;;5071062;28;20178;-41
2022/12/14 01:44:03;;;;;;;2.50;2.30;;;14.20;52.00;15.10;99533.00;;;;5071553;28;20609;-42
2022/12/14 01:46:49;;;;;;;2.50;2.30;;;14.20;51.90;15.10;99535.00;;;;5069794;28;20178;-40
2022/12/14 01:49:33;;;;;;;2.50;2.30;;;14.20;52.00;15.10;99547.00;;;;5069980;28;20697;-41
2022/12/14 01:52:14;;;;;;;2.37;2.17;;;14.20;52.00;15.10;99518.00;;;;5070786;28;20260;-41
2022/12/14 01:54:47;;;;;;;2.60;2.40;;;14.20;51.90;15.10;99531.00;;;;5069620;28;20153;-41
2022/12/14 01:57:13;;;;;;;2.17;2.07;;;14.20;52.00;15.10;99534.00;;;;5071199;28;20169;-41
2022/12/14 01:59:40;;;;;;;2.40;2.20;;;14.10;51.80;15.00;99519.00;;;;5069279;28;20572;-41
2022/12/14 02:02:06;;;;;;;2.40;2.20;;;14.10;51.90;15.00;99526.00;;;;5069055;28;20966;-42
2022/12/14 02:04:34;;;;;;;2.17;2.07;;;14.10;51.90;15.10;99516.00;;;;5070490;28;20197;-40
2022/12/14 02:07:00;;;;;;;2.57;2.37;;;14.10;51.90;15.00;99511.00;;;;5069124;28;20174;-42
2022/12/14 02:09:30;;;;;;;2.40;2.20;;;14.10;51.90;15.00;99502.00;;;;5071538;28;20209;-42
2022/12/14 02:12:25;;;;;;;2.60;2.40;;;14.10;51.90;15.00;99490.00;;;;5077665;28;20181;-40
2022/12/14 02:14:51;;;;;;;2.47;2.27;;;14.10;52.50;15.00;99495.00;;;;5069451;28;20671;-41
2022/12/14 02:17:17;;;;;;;2.57;2.07;;;14.10;51.90;15.00;99497.00;;;;5069065;28;20173;-41
2022/12/14 02:19:45;;;;;;;2.40;2.20;;;14.00;51.90;15.00;99496.00;;;;5052398;28;20630;-42
2022/12/14 02:22:52;;;;;;;2.30;2.10;;;14.00;51.80;14.90;99486.00;;;;5070231;28;20186;-41
2022/12/14 02:25:39;;;;;;;2.50;2.30;;;14.00;51.80;14.90;99488.00;;;;5058638;28;20220;-42
2022/12/14 02:28:36;;;;;;;2.30;2.10;;;14.00;51.80;14.90;99484.00;;;;5068848;28;20182;-40
2022/12/14 02:31:27;;;;;;;2.73;2.27;;;13.90;51.70;14.90;99487.00;;;;5068887;28;20157;-49
2022/12/14 02:33:56;;;;;;;2.00;1.90;;;13.90;51.70;14.80;99488.00;;;;5076691;28;20165;-40
2022/12/14 02:37:02;;;;;;;2.10;2.00;;;14.00;51.80;14.80;99484.00;;;;5072522;28;20244;-42
2022/12/14 02:39:59;;;;;;;2.30;2.10;;;13.90;51.70;14.80;99458.00;;;;5069561;28;20271;-42
2022/12/14 02:43:10;;;;;;;2.30;2.10;;;13.90;51.70;14.80;99475.00;;;;5069655;28;20161;-41
2022/12/14 02:45:45;;;;;;;2.40;2.20;;;13.80;51.60;14.80;99459.00;;;;5057622;28;20181;-41
2022/12/14 02:48:34;;;;;;;2.37;2.23;;;13.80;51.70;14.80;99448.00;;;;5069118;28;20737;-41
2022/12/14 02:51:23;;;;;;;2.37;2.17;;;13.80;51.70;14.70;99381.00;;;;5069274;28;20177;-41
2022/12/14 02:54:01;;;;;;;2.40;2.20;;;13.80;51.70;14.70;99456.00;;;;5069478;28;20673;-40
2022/12/14 02:56:33;;;;;;;2.20;2.10;;;13.80;51.70;14.70;99466.00;;;;5068383;28;20153;-40
2022/12/14 02:58:59;;;;;;;2.30;2.10;;;13.80;51.70;14.70;99459.00;;;;5068057;28;20205;-40
2022/12/14 03:01:26;;;;;;;2.23;2.07;;;13.70;51.90;14.70;99460.00;;;;5067916;28;20181;-41
2022/12/14 03:03:52;;;;;;;2.50;2.30;;;13.70;51.80;14.70;99450.00;;;;5069303;28;20227;-42
2022/12/14 03:06:26;;;;;;;2.20;2.10;;;13.70;51.80;14.70;99448.00;;;;5069296;28;20566;-42
2022/12/14 03:09:18;;;;;;;2.23;2.03;;;13.70;51.80;14.70;99453.00;;;;5070970;28;20224;-42
2022/12/14 03:12:05;;;;;;;2.33;2.13;;;13.70;51.80;14.60;99452.00;;;;5071591;28;20272;-42
2022/12/14 03:14:38;;;;;;;2.10;2.00;;;13.70;51.90;14.60;99436.00;;;;5068169;28;20173;-40
2022/12/14 03:17:09;;;;;;;2.03;1.93;;;13.60;51.80;14.60;99428.00;;;;5067948;28;20595;-41
2022/12/14 03:19:41;;;;;;;2.10;2.00;;;13.70;51.80;14.60;99419.00;;;;5067632;28;20209;-41
2022/12/14 03:22:17;;;;;;;2.10;2.00;;;13.60;51.80;14.60;99427.00;;;;5067540;28;20182;-41
2022/12/14 03:24:47;;;;;;;2.00;1.90;;;13.60;51.80;14.60;99421.00;;;;5067367;28;20641;-41
2022/12/14 03:27:30;;;;;;;2.10;2.00;;;13.60;51.70;14.60;99439.00;;;;5067657;28;20173;-41
2022/12/14 03:30:18;;;;;;;2.10;1.90;;;13.60;51.70;14.60;99433.00;;;;5067915;28;20198;-41
2022/12/14 03:32:47;;;;;;;2.23;2.10;;;13.60;51.80;14.50;99433.00;;;;5066854;28;20315;-41
2022/12/14 03:35:16;;;;;;;2.37;2.00;;;13.50;51.80;14.50;99433.00;;;;5067531;28;20170;-40
2022/12/14 03:37:57;;;;;;;2.03;1.93;;;13.50;51.70;14.50;99438.00;;;;5067274;28;20178;-40
2022/12/14 03:40:41;;;;;;;2.20;2.10;;;13.50;51.70;14.50;99415.00;;;;5067218;28;20232;-42
2022/12/14 03:43:17;;;;;;;2.00;1.90;;;13.50;51.70;14.50;99438.00;;;;5066965;28;20161;-41
2022/12/14 03:45:56;;;;;;;2.30;2.10;;;13.50;51.70;14.40;99426.00;;;;5067288;28;20177;-41
2022/12/14 03:48:58;;;;;;;2.20;2.03;;;13.40;52.00;14.40;99433.00;;;;5067324;28;20213;-41
2022/12/14 03:51:50;;;;;;;2.07;1.97;;;13.40;51.80;14.40;99430.00;;;;5045848;28;20193;-40
2022/12/14 03:54:26;;;;;;;2.20;2.00;;;13.40;52.30;14.40;99436.00;;;;5066767;28;20165;-41
2022/12/14 03:57:24;;;;;;;2.20;2.00;;;13.40;51.70;14.30;99437.00;;;;5067167;28;20173;-42
2022/12/14 04:00:05;;;;;;;2.37;2.17;;;13.40;52.00;14.30;99423.00;;;;5067180;28;20201;-42
2022/12/14 04:02:47;;;;;;;2.30;2.10;;;13.30;51.70;14.30;99430.00;;;;5066745;28;20177;-42
2022/12/14 04:05:27;;;;;;;2.43;2.10;;;13.30;51.70;14.30;99430.00;;;;5067374;28;20161;-40
2022/12/14 04:08:16;;;;;;;2.30;2.10;;;13.40;51.80;14.30;99433.00;;;;5067069;28;20166;-41
2022/12/14 04:19:20;;;;;;;2.10;1.90;;;13.20;51.60;14.20;99418.00;;;;5068202;28;20846;-41
2022/12/14 04:22:00;;;;;;;2.13;1.93;;;13.30;52.00;14.10;99423.00;;;;5067441;28;20169;-41
2022/12/14 04:27:41;;;;;;;2.10;1.90;;;13.30;51.90;14.10;99410.00;;;;5067074;28;20237;-41
2022/12/14 04:30:09;;;;;;;2.30;2.10;;;13.20;51.80;14.10;99418.00;;;;5066755;28;20197;-41
2022/12/14 04:32:37;;;;;;;2.37;2.17;;;13.20;51.70;14.10;99409.00;;;;5066626;28;20623;-40
2022/12/14 04:35:30;;;;;;;4.80;2.27;;;13.20;51.60;14.10;99413.00;;;;5068701;28;20823;-40
2022/12/14 04:38:19;;;;;;;2.10;2.00;;;13.10;52.00;13.80;99409.00;;;;5067133;28;20282;-41
2022/12/14 04:40:48;;;;;;;2.27;2.07;;;13.10;52.40;14.10;99399.00;;;;5063457;28;20177;-44
2022/12/14 04:43:18;;;;;;;6.23;2.20;;;13.10;51.80;14.10;99402.00;;;;5071008;28;20182;-42
2022/12/14 04:45:55;;;;;;;2.27;2.00;;;13.10;51.90;14.10;99397.00;;;;5071234;28;20181;-42
2022/12/14 04:48:38;;;;;;;4.40;2.00;;;13.10;52.00;14.10;99398.00;;;;5071885;28;20157;-43
2022/12/14 04:51:36;;;;;;;4.77;2.10;;;13.20;52.00;14.10;99394.00;;;;5073742;28;20168;-42
2022/12/14 04:54:24;;;;;;;3.10;1.97;;;13.10;51.90;14.10;99402.00;;;;5078784;28;20162;-42
2022/12/14 04:57:16;;;;;;;2.57;2.10;;;13.10;51.90;14.10;99389.00;;;;5079753;28;20693;-41
2022/12/14 04:59:42;;;;;;;2.50;2.10;;;13.10;51.90;14.00;99392.00;;;;5077498;28;20194;-42
2022/12/14 05:02:13;;;;;;;2.30;2.07;;;13.10;51.90;14.10;99400.00;;;;5072652;28;20197;-42
2022/12/14 05:04:55;;;;;;;3.13;2.10;;;13.00;51.80;14.00;99392.00;;;;5071506;28;20157;-43
2022/12/14 05:07:52;;;;;;;2.23;2.03;;;13.00;51.80;14.00;99389.00;;;;5056816;28;20178;-42
2022/12/14 05:10:35;;;;;;;2.37;2.17;;;13.00;51.80;14.00;99385.00;;;;5051495;28;20672;-42
2022/12/14 05:13:19;;;;;;;2.83;1.97;;;12.90;51.70;14.00;99383.00;;;;5037276;28;20182;-42
2022/12/14 05:15:48;;;;;;;2.70;1.90;;;13.00;51.70;14.00;99376.00;;;;5051016;28;20174;-42
2022/12/14 05:18:14;;;;;;;2.07;1.70;;;13.00;51.70;14.00;99376.00;;;;5035132;28;20182;-41
2022/12/14 05:20:40;;;;;;;2.10;1.90;;;13.00;51.80;14.00;99366.00;;;;5034886;28;20210;-41
2022/12/14 05:23:07;;;;;;;2.20;1.90;;;12.90;51.70;13.90;99348.00;;;;5049970;28;20178;-43
2022/12/14 05:25:33;;;;;;;1.90;1.80;;;12.90;51.70;13.90;99365.00;;;;5051899;28;20162;-42
2022/12/14 05:27:59;;;;;;;2.77;2.00;;;12.90;51.80;13.90;99360.00;;;;5052237;28;20638;-43
2022/12/14 05:30:25;;;;;;;2.10;1.90;;;12.90;52.00;13.90;99344.00;;;;5052340;28;20278;-42
2022/12/14 05:32:52;;;;;;;4.10;2.23;;;12.80;51.90;13.90;99342.00;;;;5050603;28;20824;-42
2022/12/14 05:35:18;;;;;;;7.07;2.30;;;12.90;51.80;13.90;99345.00;;;;5050688;28;20181;-43
2022/12/14 05:37:44;;;;;;;8.00;2.60;;;12.80;51.50;13.90;99335.00;;;;5052183;28;20182;-42
2022/12/14 05:40:11;;;;;;;7.53;2.60;;;12.80;51.30;13.90;99337.00;;;;5051699;28;20260;-42
2022/12/14 05:42:37;;;;;;;9.80;2.80;;;12.80;51.20;13.90;99334.00;;;;5050304;28;20193;-41
2022/12/14 05:45:04;;;;;;;8.30;2.60;;;12.80;51.00;13.80;99330.00;;;;5051861;28;20877;-44
2022/12/14 05:47:30;;;;;;;6.80;2.60;;;12.70;50.70;13.80;99331.00;;;;5051036;28;20636;-43
2022/12/14 05:49:56;;;;;;;2.97;2.50;;;12.70;50.90;13.80;99328.00;;;;5052000;28;20190;-43
2022/12/14 05:52:25;;;;;;;3.10;2.80;;;12.70;50.80;13.80;99317.00;;;;5036620;28;20182;-43
2022/12/14 05:54:51;;;;;;;7.00;2.83;;;12.70;50.70;13.80;99321.00;;;;5053541;28;20272;-43
2022/12/14 05:57:17;;;;;;;3.07;2.73;;;12.70;50.50;13.80;99321.00;;;;5052061;28;20321;-42
2022/12/14 05:59:46;;;;;;;7.47;3.00;;;12.60;50.30;13.80;99322.00;;;;5034373;28;20214;-41
2022/12/14 06:02:12;;;;;;;4.47;2.90;;;12.60;50.30;13.70;99313.00;;;;5051138;28;20162;-44
2022/12/14 06:04:39;;;;;;;5.43;2.80;;;12.60;50.30;13.70;99328.00;;;;5051689;28;20170;-42
2022/12/14 06:07:09;;;;;;;4.93;3.00;;;12.60;50.40;13.70;99321.00;;;;5050643;28;20201;-42
2022/12/14 06:09:36;;;;;;;6.30;2.80;;;12.60;50.70;13.70;99320.00;;;;5035009;28;20341;-42
2022/12/14 06:12:02;;;;;;;4.90;2.97;;;12.60;50.70;13.70;99298.00;;;;5050244;28;20170;-42
2022/12/14 06:14:28;;;;;;;3.97;2.40;;;12.60;50.70;13.70;99323.00;;;;5031967;28;20181;-43
2022/12/14 06:16:55;;;;;;;3.17;2.50;;;12.60;50.80;13.70;99328.00;;;;5059307;28;20177;-42
2022/12/14 06:19:21;;;;;;;5.03;2.80;;;12.60;50.90;13.70;99326.00;;;;5071027;28;20213;-41
2022/12/14 06:21:50;;;;;;;6.07;2.90;;;12.60;50.90;13.70;99323.00;;;;5071069;28;20165;-42
2022/12/14 06:24:17;;;;;;;5.13;3.00;;;12.60;50.80;13.70;99320.00;;;;5070956;28;20154;-42
2022/12/14 06:26:43;;;;;;;4.10;2.67;;;12.60;50.90;13.70;99319.00;;;;5070464;28;20260;-42
2022/12/14 06:29:15;;;;;;;3.80;2.77;;;12.60;50.90;13.60;99320.00;;;;5071939;28;20280;-42
2022/12/14 06:31:42;;;;;;;7.20;2.50;;;12.60;51.00;13.60;99326.00;;;;5071294;28;20234;-43
2022/12/14 06:34:08;;;;;;;4.50;2.37;;;12.60;51.00;13.60;99322.00;;;;5071053;28;20166;-43
2022/12/14 06:36:35;;;;;;;3.27;2.50;;;12.60;51.00;13.60;99324.00;;;;5071921;28;20174;-42
2022/12/14 06:39:05;;;;;;;2.60;2.40;;;12.50;51.00;13.60;99326.00;;;;5061355;28;20800;-42
2022/12/14 06:41:32;;;;;;;4.93;2.50;;;12.50;51.00;13.60;99326.00;;;;5073925;28;20169;-42
2022/12/14 06:44:07;;;;;;;2.80;2.40;;;12.50;51.10;13.60;99324.00;;;;5070883;28;20173;-42
2022/12/14 06:46:33;;;;;;;5.20;2.30;;;12.50;51.10;13.60;99331.00;;;;5070772;28;20168;-42
2022/12/14 06:48:59;;;;;;;2.60;2.40;;;12.50;51.10;13.60;99327.00;;;;5069476;28;20586;-43
2022/12/14 06:51:25;;;;;;;4.03;2.83;;;12.50;51.20;13.50;99319.00;;;;5068314;28;20802;-42
2022/12/14 06:53:55;;;;;;;2.70;2.17;;;12.50;51.20;13.50;99309.00;;;;5070557;28;20236;-43
2022/12/14 06:56:21;;;;;;;2.53;2.20;;;12.50;51.40;13.60;99325.00;;;;5071084;28;20174;-44
2022/12/14 06:58:47;;;;;;;3.27;2.50;;;12.60;51.40;13.60;99322.00;;;;5070672;28;20558;-45
2022/12/14 07:01:16;;;;;;;3.20;2.40;;;12.70;51.40;13.60;99315.00;;;;5071372;28;20387;-42
2022/12/14 07:03:42;;;;;;;2.60;2.40;;;12.80;51.40;13.70;99317.00;;;;5069497;28;20219;-43
2022/12/14 07:06:08;;;;;;;2.40;2.20;;;12.90;51.30;13.70;99304.00;;;;5070653;28;20258;-43
2022/12/14 07:08:35;;;;;;;3.83;2.37;;;13.00;51.30;13.70;99321.00;;;;5070360;28;20953;-43
2022/12/14 07:11:14;;;;;;;2.60;2.40;;;13.00;51.30;13.80;99313.00;;;;5070894;28;20173;-42
2022/12/14 07:13:40;;;;;;;2.50;2.30;;;13.10;51.30;13.80;99316.00;;;;5070071;28;20503;-43
2022/12/14 07:16:07;;;;;;;2.60;2.40;;;13.10;51.40;13.80;99314.00;;;;5052500;28;20292;-42
2022/12/14 07:18:33;;;;;;;2.40;2.20;;;13.10;51.40;13.80;99312.00;;;;5069066;28;20244;-42
2022/12/14 07:21:08;;;;;;;3.00;2.30;;;13.10;51.50;13.90;99308.00;;;;5070604;28;20212;-42
2022/12/14 07:23:36;;;;;;;2.90;2.40;;;13.10;51.60;13.90;99309.00;;;;5071472;28;20158;-43
2022/12/14 07:26:07;;;;;;;2.57;2.37;;;13.10;51.60;13.90;99308.00;;;;5070627;28;20212;-42
2022/12/14 07:28:34;;;;;;;2.53;2.33;;;13.10;51.60;13.90;99314.00;;;;5069956;28;20162;-42
2022/12/14 07:31:00;;;;;;;2.60;2.20;;;13.10;51.70;13.90;99310.00;;;;5070806;28;20201;-43
2022/12/14 07:33:26;;;;;;;2.43;2.00;;;13.10;51.80;13.90;99318.00;;;;5070025;28;20225;-43
2022/12/14 07:35:59;;;;;;;2.50;2.30;;;13.10;51.80;13.90;99316.00;;;;5066858;28;20170;-42
2022/12/14 07:38:25;;;;;;;2.60;2.40;;;13.10;51.80;13.90;99318.00;;;;5049133;28;20192;-43
2022/12/14 07:40:51;;;;;;;2.33;2.10;;;13.00;51.90;13.90;99314.00;;;;5050371;28;20154;-41
2022/12/14 07:43:17;;;;;;;2.33;2.13;;;13.00;51.90;13.90;99317.00;;;;5049942;28;20194;-42
2022/12/14 07:45:43;;;;;;;2.60;2.40;;;13.00;51.90;13.90;99320.00;;;;5049699;28;20604;-42
2022/12/14 07:48:09;;;;;;;2.27;2.07;;;13.00;51.90;13.90;99325.00;;;;5049116;28;20174;-42
2022/12/14 07:50:35;;;;;;;2.83;2.30;;;13.00;52.00;13.90;99334.00;;;;5049008;28;20221;-42
2022/12/14 07:53:00;;;;;;;2.60;2.20;;;13.00;52.00;13.90;99328.00;;;;5049549;28;20176;-42
2022/12/14 07:55:28;;;;;;;2.90;2.23;;;13.00;52.10;13.90;99329.00;;;;5049487;28;20197;-43
2022/12/14 07:57:54;;;;;;;2.53;2.20;;;13.00;52.10;13.90;99328.00;;;;5049347;28;20193;-42
2022/12/14 08:00:20;;;;;;;2.37;2.17;;;12.90;52.10;13.80;99328.00;;;;5029189;28;20331;-43
2022/12/14 08:02:46;;;;;;;2.30;2.10;;;12.90;52.20;13.80;99326.00;;;;5047204;28;20211;-45
2022/12/14 08:05:12;;;;;;;2.17;2.07;;;12.90;52.20;13.80;99319.00;;;;5056292;28;20642;-43
2022/12/14 08:07:38;;;;;;;2.10;1.90;;;12.80;52.20;13.80;99319.00;;;;5067867;28;20522;-43
2022/12/14 08:10:04;;;;;;;2.43;2.23;;;12.80;52.30;13.80;99321.00;;;;5067311;28;20700;-42
2022/12/14 08:12:30;;;;;;;3.87;2.37;;;12.80;52.40;13.80;99322.00;;;;5069378;28;20177;-42
2022/12/14 08:14:55;;;;;;;2.43;2.17;;;12.80;52.40;13.80;99331.00;;;;5069073;28;20244;-42
2022/12/14 08:17:21;;;;;;;2.20;2.03;;;12.80;52.40;13.80;99335.00;;;;5069377;28;20221;-43
2022/12/14 08:19:48;;;;;;;2.30;2.10;;;12.80;52.50;13.80;99338.00;;;;5049747;28;20691;-41
2022/12/14 08:22:14;;;;;;;2.40;2.20;;;12.80;52.40;13.80;99335.00;;;;5052871;28;20189;-44
2022/12/14 08:24:39;;;;;;;2.50;2.30;;;12.80;52.40;13.70;99327.00;;;;5048950;28;20166;-44
2022/12/14 08:27:06;;;;;;;2.37;2.17;;;12.80;52.50;13.70;99331.00;;;;5049408;28;20154;-43
2022/12/14 08:29:32;;;;;;;2.33;2.13;;;12.80;52.50;13.70;99334.00;;;;5048552;28;20671;-42
2022/12/14 08:31:57;;;;;;;2.37;2.17;;;12.80;52.50;13.70;99337.00;;;;5049686;28;20210;-42
2022/12/14 08:34:23;;;;;;;2.67;2.20;;;12.70;52.40;13.70;99326.00;;;;5050978;28;20262;-43
2022/12/14 08:36:49;;;;;;;2.40;2.20;;;12.70;52.50;13.70;99326.00;;;;5048992;28;20681;-42
2022/12/14 08:39:15;;;;;;;2.40;2.07;;;12.60;52.50;13.70;99324.00;;;;5056574;28;20306;-41
2022/12/14 08:41:40;;;;;;;2.90;2.40;;;12.70;52.50;13.60;99321.00;;;;5067432;28;20158;-43
2022/12/14 08:44:06;;;;;;;2.80;2.40;;;12.70;52.50;13.60;99318.00;;;;5062681;28;20234;-44
2022/12/14 08:46:34;;;;;;;3.17;2.20;;;12.70;52.50;13.60;99317.00;;;;5069970;28;20824;-42
2022/12/14 08:48:59;;;;;;;2.57;2.37;;;12.60;52.50;13.60;99324.00;;;;5087814;28;20189;-43
2022/12/14 08:51:26;;;;;;;2.93;2.30;;;12.60;52.50;13.60;99317.00;;;;5088677;28;20177;-43
2022/12/14 08:53:52;;;;;;;2.50;2.30;;;12.60;52.70;13.60;99322.00;;;;5089161;28;20173;-45
2022/12/14 08:56:21;;;;;;;2.47;2.07;;;12.60;52.70;13.60;99323.00;;;;5089422;28;20173;-43
2022/12/14 08:58:46;;;;;;;2.63;2.43;;;12.60;52.70;13.60;99325.00;;;;5088571;28;20879;-42
2022/12/14 09:01:19;;;;;;;2.43;2.23;;;12.60;52.80;13.50;99331.00;;;;5089076;28;20199;-42
2022/12/14 09:03:45;;;;;;;2.40;2.20;;;12.60;52.80;13.50;99325.00;;;;5089256;28;20327;-42
2022/12/14 09:06:17;;;;;;;2.53;2.33;;;12.50;52.70;13.50;99334.00;;;;5088180;28;20637;-43
2022/12/14 09:08:43;;;;;;;2.40;2.20;;;12.50;52.70;13.50;99335.00;;;;5089427;28;20200;-43
2022/12/14 09:11:13;;;;;;;2.40;2.20;;;12.50;52.70;13.50;99355.00;;;;5088692;28;20157;-42
2022/12/14 09:13:39;;;;;;;3.40;2.33;;;12.50;52.70;13.40;99336.00;;;;5071605;28;20185;-42
2022/12/14 09:16:16;;;;;;;3.00;2.00;;;12.50;52.80;13.40;99333.00;;;;5074025;28;20638;-42
2022/12/14 09:18:43;;;;;;;2.40;2.20;;;12.50;53.00;13.40;99328.00;;;;5076137;28;20736;-43
2022/12/14 09:21:09;;;;;;;2.50;2.20;;;12.50;53.10;13.40;99348.00;;;;5074932;28;20177;-42
2022/12/14 09:23:35;;;;;;;2.60;2.40;;;12.50;53.10;13.40;99347.00;;;;5073784;28;20162;-42
2022/12/14 09:26:12;;;;;;;2.83;2.33;;;12.60;53.40;13.50;99352.00;;;;5071932;28;20669;-42
2022/12/14 09:28:40;;;;;;;3.83;2.33;;;12.70;53.50;13.50;99355.00;;;;5072663;28;20177;-43
2022/12/14 09:31:09;;;;;;;6.53;2.80;;;12.80;53.40;13.50;99350.00;;;;5072680;28;20816;-42
2022/12/14 09:33:35;;;;;;;2.43;2.23;;;12.90;53.10;13.60;99349.00;;;;5072022;28;20875;-41
2022/12/14 09:36:07;;;;;;;4.67;2.27;;;13.00;53.10;13.70;99359.00;;;;5071592;28;20193;-42
2022/12/14 09:38:34;;;;;;;2.83;2.63;;;13.10;52.90;13.80;99366.00;;;;5071692;28;20173;-43
2022/12/14 09:41:03;;;;;;;2.43;2.10;;;13.30;52.70;13.90;99371.00;;;;5070951;28;20666;-43
2022/12/14 09:43:43;;;;;;;4.17;2.40;;;13.50;52.50;14.00;99354.00;;;;5068422;28;20680;-43
2022/12/14 09:46:24;;;;;;;2.50;2.30;;;13.70;52.30;14.10;99359.00;;;;5064065;28;20161;-41
2022/12/14 09:48:50;;;;;;;3.50;2.40;;;13.80;52.10;14.20;99356.00;;;;5080495;28;20199;-43
2022/12/14 09:51:18;;;;;;;2.87;2.30;;;14.00;51.90;14.30;99347.00;;;;5043619;28;20184;-42
2022/12/14 09:53:44;;;;;;;2.40;2.20;;;14.20;51.80;14.40;99341.00;;;;5071865;28;20192;-44
2022/12/14 09:56:19;;;;;;;2.53;2.33;;;14.30;51.50;14.50;99317.00;;;;5070943;28;20170;-42
2022/12/14 09:58:54;;;;;;;3.80;2.33;;;14.50;51.50;14.60;99336.00;;;;5070166;28;20266;-42
2022/12/14 10:01:40;;;;;;;2.50;2.30;;;14.60;51.80;14.80;99339.00;;;;5057219;28;20239;-44
2022/12/14 10:04:31;;;;;;;2.50;2.30;;;14.80;51.70;14.90;99335.00;;;;5072246;28;20162;-41
2022/12/14 10:07:11;;;;;;;2.80;2.37;;;14.90;51.60;15.00;99345.00;;;;5067260;28;20650;-43
2022/12/14 10:10:18;;;;;;;2.77;2.33;;;15.10;51.60;15.20;99346.00;;;;5071148;28;20185;-41
2022/12/14 10:13:24;;;;;;;3.50;2.23;;;15.20;51.40;15.30;99351.00;;;;5068804;28;20197;-41
2022/12/14 10:16:05;;;;;;;2.70;2.50;;;15.40;51.30;15.40;99348.00;;;;5070303;28;20173;-42
2022/12/14 10:18:42;;;;;;;4.07;2.63;;;15.50;51.10;15.50;99354.00;;;;5070105;28;20189;-42
2022/12/14 10:21:13;;;;;;;4.73;2.23;;;15.50;51.10;15.60;99350.00;;;;5066304;28;20230;-42
2022/12/14 10:23:44;;;;;;;2.93;2.33;;;15.60;51.00;15.70;99354.00;;;;5050289;28;20576;-42
2022/12/14 10:26:14;;;;;;;5.33;2.30;;;15.70;51.00;15.80;99353.00;;;;5052529;28;20519;-43
2022/12/14 10:28:59;;;;;;;5.97;2.47;;;15.80;51.20;15.90;99323.00;;;;5066396;28;20189;-44
2022/12/14 10:31:51;;;;;;;8.70;3.00;;;15.80;51.10;16.00;99345.00;;;;5049465;28;20162;-42
2022/12/14 10:34:19;;;;;;;4.10;3.20;;;15.70;50.30;16.00;99354.00;;;;5050856;28;20169;-43
2022/12/14 10:37:13;;;;;;;4.40;3.20;;;15.80;48.90;16.00;99356.00;;;;5050818;28;20182;-43
2022/12/14 10:40:08;;;;;;;5.03;3.60;;;15.80;48.00;16.10;99355.00;;;;5049232;28;20274;-42
2022/12/14 10:43:03;;;;;;;5.03;3.67;;;15.90;46.90;16.10;99352.00;;;;5048153;28;20170;-44
2022/12/14 10:46:01;;;;;;;4.83;3.97;;;15.90;46.30;16.20;99368.00;;;;5049758;28;20208;-43
2022/12/14 10:49:00;;;;;;;4.70;4.30;;;16.00;45.50;16.20;99352.00;;;;5050177;28;20155;-43
2022/12/14 10:51:46;;;;;;;5.70;4.47;;;16.00;44.70;16.30;99350.00;;;;5049461;28;20170;-42
2022/12/14 10:54:32;;;;;;;5.40;4.30;;;16.00;44.50;16.30;99347.00;;;;5049936;28;20167;-43
2022/12/14 10:56:57;;;;;;;9.07;4.27;;;16.10;44.80;16.30;99340.00;;;;5053513;28;20173;-42
2022/12/14 10:59:27;;;;;;;5.70;4.40;;;16.10;45.00;16.40;99330.00;;;;5070096;28;20578;-43
2022/12/14 11:02:15;;;;;;;4.50;4.10;;;16.20;45.30;16.50;99329.00;;;;5069487;28;20166;-43
2022/12/14 11:04:54;;;;;;;4.20;3.80;;;16.30;45.10;16.50;99331.00;;;;5067929;28;20166;-42
2022/12/14 11:07:36;;;;;;;4.83;3.83;;;16.40;45.10;16.60;99342.00;;;;5068783;28;20296;-42
2022/12/14 11:10:23;;;;;;;5.57;3.80;;;16.40;45.20;16.60;99351.00;;;;5081111;28;20553;-42
2022/12/14 11:13:16;;;;;;;5.00;4.10;;;16.40;45.50;16.70;99345.00;;;;5077232;28;20177;-43
2022/12/14 11:15:51;;;;;;;6.70;4.80;;;16.30;45.50;16.70;99340.00;;;;5070368;28;20161;-42
2022/12/14 11:18:18;;;;;;;6.67;5.97;;;16.40;45.40;16.70;99344.00;;;;5070894;28;20181;-42
2022/12/14 11:20:53;;;;;;;7.53;6.23;;;16.40;45.40;16.70;99346.00;;;;5070277;28;20211;-42
2022/12/14 11:23:41;;;;;;;7.17;5.97;;;16.30;45.70;16.70;99342.00;;;;5069250;28;20165;-43
2022/12/14 11:26:14;;;;;;;6.83;6.10;;;16.30;45.90;16.80;99353.00;;;;5070255;28;20185;-43
2022/12/14 11:28:53;;;;;;;7.47;6.07;;;16.30;46.00;16.80;99338.00;;;;5068721;28;20185;-42
2022/12/14 11:31:36;;;;;;;8.67;6.17;;;16.40;46.10;16.80;99338.00;;;;5068558;28;20186;-43